sensor_id;sensor_type;location;lat;lon;timestamp;P1;durP1;ratioP1;P2;durP2;ratioP2
13388;SDS011;6764;53.250;10.410;2022-09-17T00:00:45;14.73;;;3.93;;
13388;SDS011;6764;53.250;10.410;2022-09-17T00:03:12;17.50;;;3.63;;
13388;SDS011;6764;53.250;10.410;2022-09-17T00:05:38;20.73;;;4.67;;
13388;SDS011;6764;53.250;10.410;2022-09-17T00:08:04;12.67;;;3.47;;
13388;SDS011;6764;53.250;10.410;2022-09-17T00:10:31;11.10;;;4.03;;
13388;SDS011;6764;53.250;10.410;2022-09-17T00:13:01;12.43;;;4.00;;
13388;SDS011;6764;53.250;10.410;2022-09-17T00:15:27;14.13;;;3.70;;
13388;SDS011;6764;53.250;10.410;2022-09-17T00:17:55;17.50;;;3.90;;
13388;SDS011;6764;53.250;10.410;2022-09-17T00:20:26;15.27;;;4.40;;
13388;SDS011;6764;53.250;10.410;2022-09-17T00:22:52;16.93;;;4.30;;
13388;SDS011;6764;53.250;10.410;2022-09-17T00:25:18;17.13;;;4.37;;
13388;SDS011;6764;53.250;10.410;2022-09-17T00:27:44;15.63;;;4.00;;
13388;SDS011;6764;53.250;10.410;2022-09-17T00:30:10;20.83;;;4.57;;
13388;SDS011;6764;53.250;10.410;2022-09-17T00:32:36;15.43;;;3.97;;
13388;SDS011;6764;53.250;10.410;2022-09-17T00:35:02;17.63;;;3.80;;
13388;SDS011;6764;53.250;10.410;2022-09-17T00:37:28;15.47;;;4.13;;
13388;SDS011;6764;53.250;10.410;2022-09-17T00:39:53;15.87;;;4.60;;
13388;SDS011;6764;53.250;10.410;2022-09-17T00:42:19;17.53;;;4.23;;
13388;SDS011;6764;53.250;10.410;2022-09-17T00:44:48;19.67;;;4.47;;
13388;SDS011;6764;53.250;10.410;2022-09-17T00:47:21;13.97;;;4.30;;
13388;SDS011;6764;53.250;10.410;2022-09-17T00:49:59;19.73;;;3.90;;
13388;SDS011;6764;53.250;10.410;2022-09-17T00:52:46;17.30;;;3.77;;
13388;SDS011;6764;53.250;10.410;2022-09-17T00:55:19;13.83;;;3.77;;
13388;SDS011;6764;53.250;10.410;2022-09-17T00:57:52;14.00;;;3.30;;
13388;SDS011;6764;53.250;10.410;2022-09-17T01:00:20;17.73;;;3.83;;
13388;SDS011;6764;53.250;10.410;2022-09-17T01:02:46;16.13;;;4.07;;
13388;SDS011;6764;53.250;10.410;2022-09-17T01:05:12;14.57;;;3.80;;
13388;SDS011;6764;53.250;10.410;2022-09-17T01:07:56;14.93;;;3.57;;
13388;SDS011;6764;53.250;10.410;2022-09-17T01:10:32;16.03;;;4.40;;
13388;SDS011;6764;53.250;10.410;2022-09-17T01:21:15;11.90;;;3.93;;
13388;SDS011;6764;53.250;10.410;2022-09-17T01:32:02;17.73;;;5.27;;
13388;SDS011;6764;53.250;10.410;2022-09-17T01:34:36;16.67;;;4.50;;
13388;SDS011;6764;53.250;10.410;2022-09-17T01:37:24;17.57;;;4.07;;
13388;SDS011;6764;53.250;10.410;2022-09-17T01:40:02;14.00;;;3.33;;
13388;SDS011;6764;53.250;10.410;2022-09-17T01:48:06;13.07;;;3.57;;
13388;SDS011;6764;53.250;10.410;2022-09-17T01:50:50;16.50;;;3.93;;
13388;SDS011;6764;53.250;10.410;2022-09-17T01:53:24;14.97;;;4.33;;
13388;SDS011;6764;53.250;10.410;2022-09-17T01:55:55;13.80;;;3.73;;
13388;SDS011;6764;53.250;10.410;2022-09-17T01:58:27;15.67;;;3.67;;
13388;SDS011;6764;53.250;10.410;2022-09-17T02:00:58;11.07;;;3.57;;
13388;SDS011;6764;53.250;10.410;2022-09-17T02:03:29;16.63;;;3.87;;
13388;SDS011;6764;53.250;10.410;2022-09-17T02:06:00;12.47;;;2.80;;
13388;SDS011;6764;53.250;10.410;2022-09-17T02:08:53;14.53;;;3.07;;
13388;SDS011;6764;53.250;10.410;2022-09-17T02:11:32;17.80;;;3.07;;
13388;SDS011;6764;53.250;10.410;2022-09-17T02:14:08;12.43;;;3.63;;
13388;SDS011;6764;53.250;10.410;2022-09-17T02:17:04;14.60;;;3.27;;
13388;SDS011;6764;53.250;10.410;2022-09-17T02:19:34;9.97;;;2.90;;
13388;SDS011;6764;53.250;10.410;2022-09-17T02:22:05;11.77;;;3.40;;
13388;SDS011;6764;53.250;10.410;2022-09-17T02:25:00;17.43;;;4.20;;
13388;SDS011;6764;53.250;10.410;2022-09-17T02:27:41;13.23;;;3.90;;
13388;SDS011;6764;53.250;10.410;2022-09-17T02:30:16;10.33;;;2.93;;
13388;SDS011;6764;53.250;10.410;2022-09-17T02:32:43;12.97;;;3.63;;
13388;SDS011;6764;53.250;10.410;2022-09-17T02:35:09;14.10;;;4.10;;
13388;SDS011;6764;53.250;10.410;2022-09-17T02:37:35;20.87;;;3.43;;
13388;SDS011;6764;53.250;10.410;2022-09-17T02:40:01;11.97;;;2.63;;
13388;SDS011;6764;53.250;10.410;2022-09-17T02:42:34;11.50;;;3.10;;
13388;SDS011;6764;53.250;10.410;2022-09-17T02:45:30;17.17;;;3.67;;
13388;SDS011;6764;53.250;10.410;2022-09-17T02:51:04;14.53;;;3.47;;
13388;SDS011;6764;53.250;10.410;2022-09-17T02:53:57;17.00;;;3.87;;
13388;SDS011;6764;53.250;10.410;2022-09-17T02:56:41;15.40;;;3.30;;
13388;SDS011;6764;53.250;10.410;2022-09-17T02:59:23;14.67;;;3.23;;
13388;SDS011;6764;53.250;10.410;2022-09-17T03:01:59;13.60;;;3.53;;
13388;SDS011;6764;53.250;10.410;2022-09-17T03:04:29;13.30;;;3.70;;
13388;SDS011;6764;53.250;10.410;2022-09-17T03:06:56;16.73;;;3.87;;
13388;SDS011;6764;53.250;10.410;2022-09-17T03:09:23;13.37;;;3.33;;
13388;SDS011;6764;53.250;10.410;2022-09-17T03:11:49;12.73;;;3.20;;
13388;SDS011;6764;53.250;10.410;2022-09-17T03:14:15;9.70;;;2.73;;
13388;SDS011;6764;53.250;10.410;2022-09-17T03:16:41;16.53;;;3.27;;
13388;SDS011;6764;53.250;10.410;2022-09-17T03:19:06;15.50;;;3.53;;
13388;SDS011;6764;53.250;10.410;2022-09-17T03:21:32;23.50;;;3.57;;
13388;SDS011;6764;53.250;10.410;2022-09-17T03:23:57;10.10;;;2.80;;
13388;SDS011;6764;53.250;10.410;2022-09-17T03:26:24;10.13;;;3.23;;
13388;SDS011;6764;53.250;10.410;2022-09-17T03:28:50;12.50;;;2.77;;
13388;SDS011;6764;53.250;10.410;2022-09-17T03:31:16;12.43;;;3.57;;
13388;SDS011;6764;53.250;10.410;2022-09-17T03:33:41;13.97;;;3.43;;
13388;SDS011;6764;53.250;10.410;2022-09-17T03:36:07;13.47;;;3.53;;
13388;SDS011;6764;53.250;10.410;2022-09-17T03:38:32;12.40;;;2.80;;
13388;SDS011;6764;53.250;10.410;2022-09-17T03:41:02;10.53;;;3.03;;
13388;SDS011;6764;53.250;10.410;2022-09-17T03:43:31;13.03;;;2.80;;
13388;SDS011;6764;53.250;10.410;2022-09-17T03:45:57;12.13;;;2.87;;
13388;SDS011;6764;53.250;10.410;2022-09-17T03:48:23;8.27;;;3.03;;
13388;SDS011;6764;53.250;10.410;2022-09-17T03:50:48;9.73;;;2.77;;
13388;SDS011;6764;53.250;10.410;2022-09-17T03:53:14;7.30;;;2.47;;
13388;SDS011;6764;53.250;10.410;2022-09-17T03:55:40;8.30;;;2.70;;
13388;SDS011;6764;53.250;10.410;2022-09-17T03:58:06;12.83;;;3.50;;
13388;SDS011;6764;53.250;10.410;2022-09-17T04:00:31;7.33;;;2.73;;
13388;SDS011;6764;53.250;10.410;2022-09-17T04:02:57;9.67;;;3.07;;
13388;SDS011;6764;53.250;10.410;2022-09-17T04:05:23;8.33;;;2.40;;
13388;SDS011;6764;53.250;10.410;2022-09-17T04:07:48;7.33;;;2.43;;
13388;SDS011;6764;53.250;10.410;2022-09-17T04:10:14;7.17;;;2.70;;
13388;SDS011;6764;53.250;10.410;2022-09-17T04:12:40;7.23;;;2.80;;
13388;SDS011;6764;53.250;10.410;2022-09-17T04:15:06;5.80;;;2.60;;
13388;SDS011;6764;53.250;10.410;2022-09-17T04:17:32;8.90;;;2.90;;
13388;SDS011;6764;53.250;10.410;2022-09-17T04:19:58;8.50;;;2.53;;
13388;SDS011;6764;53.250;10.410;2022-09-17T04:22:24;9.73;;;2.93;;
13388;SDS011;6764;53.250;10.410;2022-09-17T04:24:50;7.50;;;2.20;;
13388;SDS011;6764;53.250;10.410;2022-09-17T04:27:15;8.03;;;2.30;;
13388;SDS011;6764;53.250;10.410;2022-09-17T04:29:41;6.63;;;2.67;;
13388;SDS011;6764;53.250;10.410;2022-09-17T04:32:06;6.33;;;2.33;;
13388;SDS011;6764;53.250;10.410;2022-09-17T04:34:32;11.63;;;3.07;;
13388;SDS011;6764;53.250;10.410;2022-09-17T04:36:58;12.00;;;3.40;;
13388;SDS011;6764;53.250;10.410;2022-09-17T04:39:24;10.90;;;2.70;;
13388;SDS011;6764;53.250;10.410;2022-09-17T04:41:50;8.70;;;3.33;;
13388;SDS011;6764;53.250;10.410;2022-09-17T04:44:15;9.57;;;2.73;;
13388;SDS011;6764;53.250;10.410;2022-09-17T04:46:41;7.60;;;2.33;;
13388;SDS011;6764;53.250;10.410;2022-09-17T04:49:06;6.77;;;2.87;;
13388;SDS011;6764;53.250;10.410;2022-09-17T04:51:32;9.40;;;2.43;;
13388;SDS011;6764;53.250;10.410;2022-09-17T04:53:58;8.83;;;2.40;;
13388;SDS011;6764;53.250;10.410;2022-09-17T04:56:24;13.20;;;3.13;;
13388;SDS011;6764;53.250;10.410;2022-09-17T04:58:49;9.30;;;2.87;;
13388;SDS011;6764;53.250;10.410;2022-09-17T05:01:15;6.80;;;2.23;;
13388;SDS011;6764;53.250;10.410;2022-09-17T05:03:42;8.27;;;2.70;;
13388;SDS011;6764;53.250;10.410;2022-09-17T05:06:08;16.13;;;2.47;;
13388;SDS011;6764;53.250;10.410;2022-09-17T05:08:34;7.87;;;2.60;;
13388;SDS011;6764;53.250;10.410;2022-09-17T05:11:00;13.97;;;3.20;;
13388;SDS011;6764;53.250;10.410;2022-09-17T05:13:26;9.47;;;2.53;;
13388;SDS011;6764;53.250;10.410;2022-09-17T05:15:52;8.90;;;3.00;;
13388;SDS011;6764;53.250;10.410;2022-09-17T05:18:20;9.37;;;2.40;;
13388;SDS011;6764;53.250;10.410;2022-09-17T05:20:46;11.43;;;2.63;;
13388;SDS011;6764;53.250;10.410;2022-09-17T05:23:12;10.60;;;2.80;;
13388;SDS011;6764;53.250;10.410;2022-09-17T05:25:37;7.37;;;2.87;;
13388;SDS011;6764;53.250;10.410;2022-09-17T05:28:03;7.83;;;2.47;;
13388;SDS011;6764;53.250;10.410;2022-09-17T05:30:29;11.07;;;2.60;;
13388;SDS011;6764;53.250;10.410;2022-09-17T05:33:01;8.87;;;2.43;;
13388;SDS011;6764;53.250;10.410;2022-09-17T05:35:28;9.60;;;2.27;;
13388;SDS011;6764;53.250;10.410;2022-09-17T05:37:56;8.90;;;2.23;;
13388;SDS011;6764;53.250;10.410;2022-09-17T05:40:26;6.50;;;2.30;;
13388;SDS011;6764;53.250;10.410;2022-09-17T05:42:56;6.40;;;3.00;;
13388;SDS011;6764;53.250;10.410;2022-09-17T05:45:25;7.57;;;2.50;;
13388;SDS011;6764;53.250;10.410;2022-09-17T05:47:55;14.03;;;3.23;;
13388;SDS011;6764;53.250;10.410;2022-09-17T05:50:21;6.93;;;2.40;;
13388;SDS011;6764;53.250;10.410;2022-09-17T05:52:47;7.73;;;2.70;;
13388;SDS011;6764;53.250;10.410;2022-09-17T05:55:13;7.23;;;2.90;;
13388;SDS011;6764;53.250;10.410;2022-09-17T05:57:39;11.00;;;2.60;;
13388;SDS011;6764;53.250;10.410;2022-09-17T06:00:05;7.63;;;2.47;;
13388;SDS011;6764;53.250;10.410;2022-09-17T06:02:31;6.07;;;2.00;;
13388;SDS011;6764;53.250;10.410;2022-09-17T06:04:56;7.47;;;2.40;;
13388;SDS011;6764;53.250;10.410;2022-09-17T06:07:25;7.30;;;2.83;;
13388;SDS011;6764;53.250;10.410;2022-09-17T06:09:51;6.93;;;2.47;;
13388;SDS011;6764;53.250;10.410;2022-09-17T06:12:17;7.73;;;2.10;;
13388;SDS011;6764;53.250;10.410;2022-09-17T06:14:42;5.20;;;2.13;;
13388;SDS011;6764;53.250;10.410;2022-09-17T06:17:08;5.97;;;1.97;;
13388;SDS011;6764;53.250;10.410;2022-09-17T06:19:33;12.20;;;3.17;;
13388;SDS011;6764;53.250;10.410;2022-09-17T06:21:59;7.70;;;2.33;;
13388;SDS011;6764;53.250;10.410;2022-09-17T06:24:25;7.73;;;2.23;;
13388;SDS011;6764;53.250;10.410;2022-09-17T06:26:52;9.10;;;2.10;;
13388;SDS011;6764;53.250;10.410;2022-09-17T06:29:18;7.33;;;2.50;;
13388;SDS011;6764;53.250;10.410;2022-09-17T06:31:46;10.83;;;2.70;;
13388;SDS011;6764;53.250;10.410;2022-09-17T06:34:12;8.90;;;2.90;;
13388;SDS011;6764;53.250;10.410;2022-09-17T06:36:38;12.47;;;3.00;;
13388;SDS011;6764;53.250;10.410;2022-09-17T06:39:03;9.67;;;2.70;;
13388;SDS011;6764;53.250;10.410;2022-09-17T06:41:29;10.03;;;3.13;;
13388;SDS011;6764;53.250;10.410;2022-09-17T06:43:55;4.83;;;2.43;;
13388;SDS011;6764;53.250;10.410;2022-09-17T06:46:20;12.43;;;3.03;;
13388;SDS011;6764;53.250;10.410;2022-09-17T06:48:46;12.00;;;2.90;;
13388;SDS011;6764;53.250;10.410;2022-09-17T06:51:11;10.43;;;3.07;;
13388;SDS011;6764;53.250;10.410;2022-09-17T06:53:38;9.33;;;2.73;;
13388;SDS011;6764;53.250;10.410;2022-09-17T06:56:05;12.40;;;3.70;;
13388;SDS011;6764;53.250;10.410;2022-09-17T06:58:32;7.57;;;2.63;;
13388;SDS011;6764;53.250;10.410;2022-09-17T07:01:01;12.63;;;3.73;;
13388;SDS011;6764;53.250;10.410;2022-09-17T07:03:29;10.77;;;2.73;;
13388;SDS011;6764;53.250;10.410;2022-09-17T07:05:55;14.20;;;2.90;;
13388;SDS011;6764;53.250;10.410;2022-09-17T07:08:21;7.87;;;2.23;;
13388;SDS011;6764;53.250;10.410;2022-09-17T07:10:48;11.47;;;2.67;;
13388;SDS011;6764;53.250;10.410;2022-09-17T07:13:13;9.10;;;2.70;;
13388;SDS011;6764;53.250;10.410;2022-09-17T07:15:39;13.43;;;3.47;;
13388;SDS011;6764;53.250;10.410;2022-09-17T07:18:08;15.30;;;2.73;;
13388;SDS011;6764;53.250;10.410;2022-09-17T07:20:35;9.60;;;3.17;;
13388;SDS011;6764;53.250;10.410;2022-09-17T07:23:00;10.67;;;3.10;;
13388;SDS011;6764;53.250;10.410;2022-09-17T07:25:26;14.50;;;3.57;;
13388;SDS011;6764;53.250;10.410;2022-09-17T07:27:52;10.27;;;2.87;;
13388;SDS011;6764;53.250;10.410;2022-09-17T07:30:18;12.03;;;2.70;;
13388;SDS011;6764;53.250;10.410;2022-09-17T07:32:44;12.00;;;3.30;;
13388;SDS011;6764;53.250;10.410;2022-09-17T07:35:10;12.50;;;3.10;;
13388;SDS011;6764;53.250;10.410;2022-09-17T07:37:36;10.57;;;2.37;;
13388;SDS011;6764;53.250;10.410;2022-09-17T07:40:02;10.60;;;2.63;;
13388;SDS011;6764;53.250;10.410;2022-09-17T07:42:30;10.10;;;2.73;;
13388;SDS011;6764;53.250;10.410;2022-09-17T07:44:57;8.17;;;2.80;;
13388;SDS011;6764;53.250;10.410;2022-09-17T07:47:22;9.17;;;2.70;;
13388;SDS011;6764;53.250;10.410;2022-09-17T07:49:48;9.77;;;2.93;;
13388;SDS011;6764;53.250;10.410;2022-09-17T07:52:13;8.83;;;2.73;;
13388;SDS011;6764;53.250;10.410;2022-09-17T07:54:39;13.07;;;3.47;;
13388;SDS011;6764;53.250;10.410;2022-09-17T07:57:04;10.10;;;2.63;;
13388;SDS011;6764;53.250;10.410;2022-09-17T07:59:30;7.20;;;2.87;;
13388;SDS011;6764;53.250;10.410;2022-09-17T08:01:56;11.70;;;3.07;;
13388;SDS011;6764;53.250;10.410;2022-09-17T08:04:21;8.73;;;2.63;;
13388;SDS011;6764;53.250;10.410;2022-09-17T08:06:47;9.90;;;3.57;;
13388;SDS011;6764;53.250;10.410;2022-09-17T08:09:13;8.07;;;2.90;;
13388;SDS011;6764;53.250;10.410;2022-09-17T08:11:40;7.27;;;2.43;;
13388;SDS011;6764;53.250;10.410;2022-09-17T08:14:08;8.30;;;2.63;;
13388;SDS011;6764;53.250;10.410;2022-09-17T08:16:36;10.57;;;2.70;;
13388;SDS011;6764;53.250;10.410;2022-09-17T08:19:02;8.00;;;2.40;;
13388;SDS011;6764;53.250;10.410;2022-09-17T08:21:27;10.53;;;2.30;;
13388;SDS011;6764;53.250;10.410;2022-09-17T08:23:53;5.93;;;2.28;;
13388;SDS011;6764;53.250;10.410;2022-09-17T08:26:20;7.80;;;2.47;;
13388;SDS011;6764;53.250;10.410;2022-09-17T08:28:53;5.38;;;2.42;;
13388;SDS011;6764;53.250;10.410;2022-09-17T08:31:21;7.03;;;2.50;;
13388;SDS011;6764;53.250;10.410;2022-09-17T08:33:48;9.48;;;2.42;;
13388;SDS011;6764;53.250;10.410;2022-09-17T08:36:14;9.88;;;2.33;;
13388;SDS011;6764;53.250;10.410;2022-09-17T08:38:41;6.63;;;2.15;;
13388;SDS011;6764;53.250;10.410;2022-09-17T08:46:32;3.78;;;1.77;;
13388;SDS011;6764;53.250;10.410;2022-09-17T08:49:23;4.18;;;1.90;;
13388;SDS011;6764;53.250;10.410;2022-09-17T08:52:00;6.75;;;2.55;;
13388;SDS011;6764;53.250;10.410;2022-09-17T08:57:29;5.93;;;1.95;;
13388;SDS011;6764;53.250;10.410;2022-09-17T09:00:19;5.88;;;2.00;;
13388;SDS011;6764;53.250;10.410;2022-09-17T09:05:49;7.38;;;2.25;;
13388;SDS011;6764;53.250;10.410;2022-09-17T09:08:34;8.43;;;2.47;;
13388;SDS011;6764;53.250;10.410;2022-09-17T09:11:10;7.03;;;2.13;;
13388;SDS011;6764;53.250;10.410;2022-09-17T09:13:41;7.30;;;1.75;;
13388;SDS011;6764;53.250;10.410;2022-09-17T09:16:17;6.07;;;2.20;;
13388;SDS011;6764;53.250;10.410;2022-09-17T09:18:51;7.07;;;2.45;;
13388;SDS011;6764;53.250;10.410;2022-09-17T09:21:29;3.70;;;1.60;;
13388;SDS011;6764;53.250;10.410;2022-09-17T09:24:08;3.13;;;1.60;;
13388;SDS011;6764;53.250;10.410;2022-09-17T09:26:43;5.07;;;1.70;;
13388;SDS011;6764;53.250;10.410;2022-09-17T09:31:59;4.65;;;1.60;;
13388;SDS011;6764;53.250;10.410;2022-09-17T09:34:48;2.13;;;1.38;;
13388;SDS011;6764;53.250;10.410;2022-09-17T09:37:25;3.88;;;1.60;;
13388;SDS011;6764;53.250;10.410;2022-09-17T09:39:54;4.05;;;1.40;;
13388;SDS011;6764;53.250;10.410;2022-09-17T09:42:46;4.00;;;1.35;;
13388;SDS011;6764;53.250;10.410;2022-09-17T09:45:15;6.53;;;1.58;;
13388;SDS011;6764;53.250;10.410;2022-09-17T09:48:10;6.15;;;1.90;;
13388;SDS011;6764;53.250;10.410;2022-09-17T09:50:46;2.63;;;1.40;;
13388;SDS011;6764;53.250;10.410;2022-09-17T09:58:49;5.22;;;1.83;;
13388;SDS011;6764;53.250;10.410;2022-09-17T10:01:16;4.45;;;2.10;;
13388;SDS011;6764;53.250;10.410;2022-09-17T10:03:44;3.67;;;1.67;;
13388;SDS011;6764;53.250;10.410;2022-09-17T10:06:14;4.30;;;1.55;;
13388;SDS011;6764;53.250;10.410;2022-09-17T10:08:42;3.05;;;1.55;;
13388;SDS011;6764;53.250;10.410;2022-09-17T10:11:27;5.55;;;1.95;;
13388;SDS011;6764;53.250;10.410;2022-09-17T10:16:49;2.17;;;1.23;;
13388;SDS011;6764;53.250;10.410;2022-09-17T10:19:37;3.53;;;1.50;;
13388;SDS011;6764;53.250;10.410;2022-09-17T10:24:47;2.67;;;1.33;;
13388;SDS011;6764;53.250;10.410;2022-09-17T10:27:14;3.03;;;1.20;;
13388;SDS011;6764;53.250;10.410;2022-09-17T10:29:43;2.08;;;1.27;;
13388;SDS011;6764;53.250;10.410;2022-09-17T10:32:15;2.58;;;1.50;;
13388;SDS011;6764;53.250;10.410;2022-09-17T10:34:56;4.95;;;2.08;;
13388;SDS011;6764;53.250;10.410;2022-09-17T10:40:00;4.07;;;2.00;;
13388;SDS011;6764;53.250;10.410;2022-09-17T10:42:25;7.25;;;3.10;;
13388;SDS011;6764;53.250;10.410;2022-09-17T10:44:55;7.50;;;2.47;;
13388;SDS011;6764;53.250;10.410;2022-09-17T10:49:53;3.53;;;2.35;;
13388;SDS011;6764;53.250;10.410;2022-09-17T10:52:31;2.38;;;1.30;;
13388;SDS011;6764;53.250;10.410;2022-09-17T11:00:18;1.63;;;1.10;;
13388;SDS011;6764;53.250;10.410;2022-09-17T11:13:39;1.70;;;1.25;;
13388;SDS011;6764;53.250;10.410;2022-09-17T11:16:21;2.45;;;1.23;;
13388;SDS011;6764;53.250;10.410;2022-09-17T11:21:53;1.88;;;1.40;;
13388;SDS011;6764;53.250;10.410;2022-09-17T11:36:19;1.35;;;1.20;;
13388;SDS011;6764;53.250;10.410;2022-09-17T11:38:49;4.32;;;1.80;;
13388;SDS011;6764;53.250;10.410;2022-09-17T11:41:21;2.75;;;1.23;;
13388;SDS011;6764;53.250;10.410;2022-09-17T11:44:02;4.18;;;1.30;;
13388;SDS011;6764;53.250;10.410;2022-09-17T11:46:33;3.40;;;1.40;;
13388;SDS011;6764;53.250;10.410;2022-09-17T11:51:49;4.20;;;2.03;;
13388;SDS011;6764;53.250;10.410;2022-09-17T11:56:52;4.63;;;1.93;;
13388;SDS011;6764;53.250;10.410;2022-09-17T11:59:36;5.20;;;1.63;;
13388;SDS011;6764;53.250;10.410;2022-09-17T12:02:25;3.30;;;1.90;;
13388;SDS011;6764;53.250;10.410;2022-09-17T12:08:01;5.10;;;1.63;;
13388;SDS011;6764;53.250;10.410;2022-09-17T12:13:50;4.67;;;2.37;;
13388;SDS011;6764;53.250;10.410;2022-09-17T12:16:24;6.93;;;3.43;;
13388;SDS011;6764;53.250;10.410;2022-09-17T12:21:29;3.67;;;2.00;;
13388;SDS011;6764;53.250;10.410;2022-09-17T12:35:39;1.57;;;1.47;;
13388;SDS011;6764;53.250;10.410;2022-09-17T12:38:48;6.17;;;1.60;;
13388;SDS011;6764;53.250;10.410;2022-09-17T12:49:44;3.80;;;2.60;;
13388;SDS011;6764;53.250;10.410;2022-09-17T12:58:15;4.33;;;2.40;;
13388;SDS011;6764;53.250;10.410;2022-09-17T13:01:02;5.40;;;2.00;;
13388;SDS011;6764;53.250;10.410;2022-09-17T13:03:39;3.67;;;2.07;;
13388;SDS011;6764;53.250;10.410;2022-09-17T13:09:01;5.53;;;2.03;;
13388;SDS011;6764;53.250;10.410;2022-09-17T13:12:02;4.27;;;1.63;;
13388;SDS011;6764;53.250;10.410;2022-09-17T13:17:42;4.47;;;2.10;;
13388;SDS011;6764;53.250;10.410;2022-09-17T13:20:47;7.07;;;2.20;;
13388;SDS011;6764;53.250;10.410;2022-09-17T13:23:03;3.13;;;1.60;;
13388;SDS011;6764;53.250;10.410;2022-09-17T13:25:29;6.23;;;2.17;;
13388;SDS011;6764;53.250;10.410;2022-09-17T13:28:08;3.50;;;1.87;;
13388;SDS011;6764;53.250;10.410;2022-09-17T13:42:06;8.70;;;5.40;;
13388;SDS011;6764;53.250;10.410;2022-09-17T13:44:42;5.67;;;2.53;;
13388;SDS011;6764;53.250;10.410;2022-09-17T13:47:12;7.70;;;2.60;;
13388;SDS011;6764;53.250;10.410;2022-09-17T13:50:09;4.97;;;2.17;;
13388;SDS011;6764;53.250;10.410;2022-09-17T13:52:48;32.77;;;24.40;;
13388;SDS011;6764;53.250;10.410;2022-09-17T13:58:04;7.10;;;2.20;;
13388;SDS011;6764;53.250;10.410;2022-09-17T14:05:56;6.30;;;4.53;;
13388;SDS011;6764;53.250;10.410;2022-09-17T14:13:43;4.50;;;1.60;;
13388;SDS011;6764;53.250;10.410;2022-09-17T14:22:29;2.42;;;1.88;;
13388;SDS011;6764;53.250;10.410;2022-09-17T14:24:37;3.67;;;1.95;;
13388;SDS011;6764;53.250;10.410;2022-09-17T14:37:42;2.78;;;2.08;;
13388;SDS011;6764;53.250;10.410;2022-09-17T14:40:18;3.90;;;1.90;;
13388;SDS011;6764;53.250;10.410;2022-09-17T14:42:45;4.43;;;1.90;;
13388;SDS011;6764;53.250;10.410;2022-09-17T14:45:25;4.47;;;1.80;;
13388;SDS011;6764;53.250;10.410;2022-09-17T14:48:25;4.80;;;1.45;;
13388;SDS011;6764;53.250;10.410;2022-09-17T14:50:50;3.03;;;1.80;;
13388;SDS011;6764;53.250;10.410;2022-09-17T14:53:17;2.65;;;1.67;;
13388;SDS011;6764;53.250;10.410;2022-09-17T14:55:47;6.03;;;2.40;;
13388;SDS011;6764;53.250;10.410;2022-09-17T14:58:24;4.90;;;2.20;;
13388;SDS011;6764;53.250;10.410;2022-09-17T15:01:04;5.18;;;2.17;;
13388;SDS011;6764;53.250;10.410;2022-09-17T15:03:29;5.90;;;2.40;;
13388;SDS011;6764;53.250;10.410;2022-09-17T15:05:55;4.70;;;2.20;;
13388;SDS011;6764;53.250;10.410;2022-09-17T15:08:22;5.25;;;2.40;;
13388;SDS011;6764;53.250;10.410;2022-09-17T15:10:57;4.47;;;1.80;;
13388;SDS011;6764;53.250;10.410;2022-09-17T15:13:35;4.23;;;2.00;;
13388;SDS011;6764;53.250;10.410;2022-09-17T15:18:43;3.27;;;2.00;;
13388;SDS011;6764;53.250;10.410;2022-09-17T15:21:55;4.97;;;2.00;;
13388;SDS011;6764;53.250;10.410;2022-09-17T15:24:14;5.20;;;2.00;;
13388;SDS011;6764;53.250;10.410;2022-09-17T15:26:52;4.53;;;1.80;;
13388;SDS011;6764;53.250;10.410;2022-09-17T15:29:21;8.55;;;2.60;;
13388;SDS011;6764;53.250;10.410;2022-09-17T15:31:49;6.53;;;2.27;;
13388;SDS011;6764;53.250;10.410;2022-09-17T15:34:15;6.38;;;2.28;;
13388;SDS011;6764;53.250;10.410;2022-09-17T15:36:43;4.87;;;2.03;;
13388;SDS011;6764;53.250;10.410;2022-09-17T15:39:46;4.93;;;1.97;;
13388;SDS011;6764;53.250;10.410;2022-09-17T15:42:26;5.30;;;2.00;;
13388;SDS011;6764;53.250;10.410;2022-09-17T15:50:23;6.00;;;2.53;;
13388;SDS011;6764;53.250;10.410;2022-09-17T15:52:56;6.00;;;2.20;;
13388;SDS011;6764;53.250;10.410;2022-09-17T15:55:37;5.37;;;1.77;;
13388;SDS011;6764;53.250;10.410;2022-09-17T16:08:46;2.23;;;1.37;;
13388;SDS011;6764;53.250;10.410;2022-09-17T16:11:25;6.23;;;2.73;;
13388;SDS011;6764;53.250;10.410;2022-09-17T16:13:56;2.90;;;1.73;;
13388;SDS011;6764;53.250;10.410;2022-09-17T16:16:24;4.13;;;1.97;;
13388;SDS011;6764;53.250;10.410;2022-09-17T16:19:01;1.50;;;1.30;;
13388;SDS011;6764;53.250;10.410;2022-09-17T16:21:30;2.83;;;1.70;;
13388;SDS011;6764;53.250;10.410;2022-09-17T16:23:56;2.90;;;1.87;;
13388;SDS011;6764;53.250;10.410;2022-09-17T16:26:23;7.33;;;4.47;;
13388;SDS011;6764;53.250;10.410;2022-09-17T16:28:53;6.37;;;4.70;;
13388;SDS011;6764;53.250;10.410;2022-09-17T16:31:23;3.70;;;1.80;;
13388;SDS011;6764;53.250;10.410;2022-09-17T16:33:50;2.67;;;1.97;;
13388;SDS011;6764;53.250;10.410;2022-09-17T16:36:15;2.70;;;1.60;;
13388;SDS011;6764;53.250;10.410;2022-09-17T16:38:41;4.20;;;1.70;;
13388;SDS011;6764;53.250;10.410;2022-09-17T16:41:07;4.47;;;1.73;;
13388;SDS011;6764;53.250;10.410;2022-09-17T16:43:33;5.73;;;2.40;;
13388;SDS011;6764;53.250;10.410;2022-09-17T16:46:00;5.10;;;1.80;;
13388;SDS011;6764;53.250;10.410;2022-09-17T16:48:26;4.80;;;1.80;;
13388;SDS011;6764;53.250;10.410;2022-09-17T16:50:52;3.87;;;1.70;;
13388;SDS011;6764;53.250;10.410;2022-09-17T16:53:18;3.57;;;2.17;;
13388;SDS011;6764;53.250;10.410;2022-09-17T16:55:43;2.67;;;2.00;;
13388;SDS011;6764;53.250;10.410;2022-09-17T16:58:09;3.57;;;2.23;;
13388;SDS011;6764;53.250;10.410;2022-09-17T17:00:35;5.03;;;2.63;;
13388;SDS011;6764;53.250;10.410;2022-09-17T17:03:01;3.23;;;1.87;;
13388;SDS011;6764;53.250;10.410;2022-09-17T17:05:28;3.90;;;1.60;;
13388;SDS011;6764;53.250;10.410;2022-09-17T17:07:54;3.47;;;2.30;;
13388;SDS011;6764;53.250;10.410;2022-09-17T17:10:20;3.73;;;2.00;;
13388;SDS011;6764;53.250;10.410;2022-09-17T17:12:46;4.27;;;1.97;;
13388;SDS011;6764;53.250;10.410;2022-09-17T17:15:12;4.23;;;2.07;;
13388;SDS011;6764;53.250;10.410;2022-09-17T17:17:38;4.73;;;1.80;;
13388;SDS011;6764;53.250;10.410;2022-09-17T17:20:07;3.47;;;2.10;;
13388;SDS011;6764;53.250;10.410;2022-09-17T17:22:42;3.93;;;1.70;;
13388;SDS011;6764;53.250;10.410;2022-09-17T17:25:08;4.73;;;1.70;;
13388;SDS011;6764;53.250;10.410;2022-09-17T17:27:34;3.30;;;1.83;;
13388;SDS011;6764;53.250;10.410;2022-09-17T17:30:02;6.63;;;1.90;;
13388;SDS011;6764;53.250;10.410;2022-09-17T17:32:32;3.43;;;1.70;;
13388;SDS011;6764;53.250;10.410;2022-09-17T17:34:58;3.97;;;2.03;;
13388;SDS011;6764;53.250;10.410;2022-09-17T17:37:24;2.57;;;1.60;;
13388;SDS011;6764;53.250;10.410;2022-09-17T17:39:50;2.70;;;1.90;;
13388;SDS011;6764;53.250;10.410;2022-09-17T17:42:16;2.57;;;1.90;;
13388;SDS011;6764;53.250;10.410;2022-09-17T17:44:42;2.77;;;1.87;;
13388;SDS011;6764;53.250;10.410;2022-09-17T17:47:07;2.37;;;1.80;;
13388;SDS011;6764;53.250;10.410;2022-09-17T17:49:33;4.23;;;1.90;;
13388;SDS011;6764;53.250;10.410;2022-09-17T17:51:59;2.97;;;1.90;;
13388;SDS011;6764;53.250;10.410;2022-09-17T17:54:24;2.93;;;1.73;;
13388;SDS011;6764;53.250;10.410;2022-09-17T17:56:52;4.53;;;2.03;;
13388;SDS011;6764;53.250;10.410;2022-09-17T17:59:18;2.53;;;1.60;;
13388;SDS011;6764;53.250;10.410;2022-09-17T18:01:43;5.90;;;1.90;;
13388;SDS011;6764;53.250;10.410;2022-09-17T18:04:09;3.30;;;2.23;;
13388;SDS011;6764;53.250;10.410;2022-09-17T18:06:35;4.83;;;2.20;;
13388;SDS011;6764;53.250;10.410;2022-09-17T18:09:01;4.07;;;2.00;;
13388;SDS011;6764;53.250;10.410;2022-09-17T18:11:27;4.10;;;1.70;;
13388;SDS011;6764;53.250;10.410;2022-09-17T18:13:54;8.37;;;2.07;;